createdAt,value
2018-06-11T00:01:16.726Z,20.50
2018-06-11T00:03:45.220Z,20.50
2018-06-11T00:06:13.806Z,20.50
2018-06-11T00:08:42.325Z,20.50
2018-06-11T00:11:10.783Z,20.40
2018-06-11T00:13:39.424Z,20.40
2018-06-11T00:16:07.884Z,20.40
2018-06-11T00:18:36.308Z,20.40
2018-06-11T00:21:04.946Z,20.40
2018-06-11T00:23:33.420Z,20.40
2018-06-11T00:26:01.924Z,20.40
2018-06-11T00:28:30.385Z,20.40
2018-06-11T00:30:58.868Z,20.30
2018-06-11T00:33:27.391Z,20.30
2018-06-11T00:35:55.978Z,20.30
2018-06-11T00:38:24.568Z,20.20
2018-06-11T00:40:53.043Z,20.20
2018-06-11T00:43:21.471Z,20.20
2018-06-11T00:45:50.035Z,20.30
2018-06-11T00:48:18.496Z,20.30
2018-06-11T00:50:46.994Z,20.20
2018-06-11T00:53:15.528Z,20.20
2018-06-11T00:55:55.396Z,20.20
2018-06-11T00:58:23.954Z,20.20
2018-06-11T01:00:52.465Z,20.10
2018-06-11T01:03:21.203Z,20.10
2018-06-11T01:08:17.807Z,20.00
2018-06-11T01:10:46.236Z,20.00
2018-06-11T01:13:14.674Z,20.00
2018-06-11T01:15:43.145Z,19.90
2018-06-11T01:18:11.651Z,19.90
2018-06-11T01:20:40.199Z,19.90
2018-06-11T01:23:08.707Z,19.80
2018-06-11T01:25:37.128Z,19.80
2018-06-11T01:28:05.556Z,19.70
2018-06-11T01:30:34.034Z,19.60
2018-06-11T01:33:02.542Z,19.60
2018-06-11T01:35:31.134Z,19.50
2018-06-11T01:40:27.843Z,19.40
2018-06-11T01:42:56.325Z,19.40
2018-06-11T01:45:24.934Z,19.30
2018-06-11T01:47:53.444Z,19.30
2018-06-11T01:50:21.875Z,19.20
2018-06-11T01:52:50.389Z,19.20
2018-06-11T01:57:47.012Z,19.10
2018-06-11T02:00:15.640Z,19.00
2018-06-11T02:02:44.076Z,19.00
2018-06-11T02:05:12.552Z,19.00
2018-06-11T02:07:41.015Z,18.90
2018-06-11T02:10:09.903Z,18.90
2018-06-11T02:12:38.437Z,18.90
2018-06-11T02:15:07.047Z,18.90
2018-06-11T02:17:35.501Z,18.80
2018-06-11T02:20:03.992Z,18.80
2018-06-11T02:22:32.424Z,18.80
2018-06-11T02:25:00.836Z,18.70
2018-06-11T02:29:57.456Z,18.70
2018-06-11T02:32:25.893Z,18.60
2018-06-11T02:34:54.394Z,18.70
2018-06-11T02:37:22.821Z,18.70
2018-06-11T02:39:51.439Z,18.70
2018-06-11T02:42:19.942Z,18.70
2018-06-11T02:44:48.684Z,18.60
2018-06-11T02:47:17.138Z,18.50
2018-06-11T02:49:45.587Z,18.50
2018-06-11T02:52:14.033Z,18.50
2018-06-11T02:57:13.579Z,18.40
2018-06-11T02:59:42.020Z,18.40
2018-06-11T03:02:10.460Z,18.30
2018-06-11T03:04:38.991Z,18.30
2018-06-11T03:09:36.166Z,18.20
2018-06-11T03:12:04.585Z,18.20
2018-06-11T03:14:33.045Z,18.20
2018-06-11T03:17:01.552Z,18.20
2018-06-11T03:19:30.084Z,18.20
2018-06-11T03:21:58.752Z,18.20
2018-06-11T03:24:27.206Z,18.20
2018-06-11T03:26:55.615Z,18.10
2018-06-11T03:29:24.053Z,18.00
2018-06-11T03:31:52.533Z,18.10
2018-06-11T03:34:21.053Z,18.00
2018-06-11T03:36:49.592Z,18.00
2018-06-11T03:39:18.046Z,17.90
2018-06-11T03:41:46.515Z,17.90
2018-06-11T03:44:14.930Z,17.90
2018-06-11T03:46:43.437Z,17.80
2018-06-11T03:51:40.819Z,17.80
2018-06-11T03:54:09.212Z,17.70
2018-06-11T03:56:37.727Z,17.70
2018-06-11T03:59:06.193Z,17.70
2018-06-11T04:01:34.653Z,17.80
2018-06-11T04:06:31.254Z,17.80
2018-06-11T04:08:59.712Z,17.90
2018-06-11T04:11:28.128Z,18.00
2018-06-11T04:13:56.567Z,18.10
2018-06-11T04:16:24.999Z,18.10
2018-06-11T04:18:53.501Z,18.00
2018-06-11T04:21:22.001Z,18.00
2018-06-11T04:23:50.444Z,18.10
2018-06-11T04:26:18.884Z,18.20
2018-06-11T04:28:47.312Z,18.20
2018-06-11T04:31:16.056Z,18.30
2018-06-11T04:33:44.631Z,18.20
2018-06-11T04:36:13.075Z,18.20
2018-06-11T04:38:41.568Z,18.30
2018-06-11T04:41:10.049Z,18.30
2018-06-11T04:43:38.688Z,18.10
2018-06-11T04:46:07.163Z,18.10
2018-06-11T04:48:35.720Z,18.20
2018-06-11T04:51:04.253Z,18.10
2018-06-11T04:53:32.866Z,18.10
2018-06-11T04:56:01.865Z,18.10
2018-06-11T04:58:30.771Z,18.10
2018-06-11T05:00:59.308Z,18.20
2018-06-11T05:03:27.732Z,18.30
2018-06-11T05:05:56.194Z,18.30
2018-06-11T05:08:24.612Z,18.30
2018-06-11T05:10:53.094Z,18.20
2018-06-11T05:13:24.441Z,18.20
2018-06-11T05:15:52.997Z,18.10
2018-06-11T05:18:21.531Z,18.10
2018-06-11T05:20:49.954Z,18.30
2018-06-11T05:23:18.652Z,18.40
2018-06-11T05:25:47.283Z,18.50
2018-06-11T05:28:15.708Z,18.80
2018-06-11T05:30:44.222Z,19.00
2018-06-11T05:33:12.897Z,18.80
2018-06-11T05:35:41.397Z,18.90
2018-06-11T05:38:09.950Z,18.80
2018-06-11T05:40:38.485Z,18.80
2018-06-11T05:43:06.972Z,18.90
2018-06-11T05:45:35.580Z,18.90
2018-06-11T05:48:04.141Z,18.80
2018-06-11T05:50:32.595Z,18.80
2018-06-11T05:53:01.006Z,19.30
2018-06-11T05:55:29.439Z,20.20
2018-06-11T05:57:57.872Z,20.90
2018-06-11T06:00:26.409Z,21.40
2018-06-11T06:02:54.914Z,21.50
2018-06-11T06:05:23.385Z,22.00
2018-06-11T06:07:51.859Z,22.90
2018-06-11T06:10:20.273Z,22.50
2018-06-11T06:12:48.777Z,22.50
2018-06-11T06:15:17.214Z,22.10
2018-06-11T06:17:45.625Z,22.70
2018-06-11T06:20:14.063Z,22.90
2018-06-11T06:22:42.498Z,22.80
2018-06-11T06:27:39.413Z,23.20
2018-06-11T06:30:07.865Z,22.90
2018-06-11T06:32:36.344Z,23.60
2018-06-11T06:35:04.788Z,23.50
2018-06-11T06:37:33.216Z,23.70
2018-06-11T06:40:01.656Z,23.40
2018-06-11T06:42:30.185Z,24.10
2018-06-11T06:44:58.666Z,24.50
2018-06-11T06:47:27.372Z,24.90
2018-06-11T06:49:59.135Z,24.20
2018-06-11T06:52:27.621Z,24.30
2018-06-11T06:54:56.123Z,24.30
2018-06-11T06:57:24.617Z,24.60
2018-06-11T06:59:53.151Z,24.90
2018-06-11T07:02:21.733Z,24.90
2018-06-11T07:04:50.228Z,25.10
2018-06-11T07:07:18.817Z,25.50
2018-06-11T07:09:47.313Z,25.40
2018-06-11T07:14:43.966Z,24.80
2018-06-11T07:17:12.399Z,24.70
2018-06-11T07:19:40.940Z,24.70
2018-06-11T07:22:09.400Z,25.80
2018-06-11T07:24:37.831Z,24.90
2018-06-11T07:27:06.341Z,23.60
2018-06-11T07:29:34.993Z,22.80
2018-06-11T07:32:03.464Z,22.90
2018-06-11T07:34:31.884Z,23.10
2018-06-11T07:37:00.368Z,23.20
2018-06-11T07:39:28.816Z,23.20
2018-06-11T07:41:57.256Z,23.20
2018-06-11T07:44:25.813Z,22.90
2018-06-11T07:46:54.257Z,22.70
2018-06-11T07:49:23.129Z,22.40
2018-06-11T07:51:51.761Z,22.20
2018-06-11T07:54:20.294Z,22.20
2018-06-11T07:56:48.766Z,22.20
2018-06-11T07:59:17.306Z,22.10
2018-06-11T08:01:45.894Z,22.10
2018-06-11T08:04:14.431Z,22.00
2018-06-11T08:06:42.865Z,22.20
2018-06-11T08:09:11.289Z,22.70
2018-06-11T08:11:40.039Z,22.60
2018-06-11T08:14:08.494Z,22.90
2018-06-11T08:16:37.030Z,22.90
2018-06-11T08:19:05.491Z,22.80
2018-06-11T08:24:02.097Z,22.80
2018-06-11T08:26:33.532Z,22.70
2018-06-11T08:29:02.007Z,22.50
2018-06-11T08:31:30.488Z,22.40
2018-06-11T08:33:58.996Z,22.20
2018-06-11T08:36:27.575Z,22.00
2018-06-11T08:38:56.118Z,21.90
2018-06-11T08:41:24.773Z,22.10
2018-06-11T08:43:53.379Z,22.00
2018-06-11T08:46:21.981Z,22.30
2018-06-11T08:48:50.428Z,22.30
2018-06-11T08:51:18.915Z,22.40
2018-06-11T08:53:47.614Z,22.30
2018-06-11T08:56:16.093Z,22.40
2018-06-11T08:58:44.571Z,22.50
2018-06-11T09:01:13.056Z,23.00
2018-06-11T09:03:41.553Z,23.20
2018-06-11T09:06:10.045Z,23.60
2018-06-11T09:08:38.550Z,23.90
2018-06-11T09:11:07.048Z,24.20
2018-06-11T09:13:35.528Z,24.10
2018-06-11T09:16:03.997Z,24.20
2018-06-11T09:21:00.594Z,23.70
2018-06-11T09:23:29.132Z,23.60
2018-06-11T09:25:57.580Z,23.50
2018-06-11T09:28:26.079Z,23.70
2018-06-11T09:30:54.556Z,24.00
2018-06-11T09:33:23.193Z,23.70
2018-06-11T09:35:51.676Z,23.60
2018-06-11T09:38:20.193Z,23.30
2018-06-11T09:40:48.681Z,23.40
2018-06-11T09:43:17.249Z,23.60
2018-06-11T09:45:45.755Z,23.60
2018-06-11T09:50:42.337Z,23.40
2018-06-11T09:53:10.857Z,23.70
2018-06-11T09:55:39.322Z,24.10
2018-06-11T09:58:07.743Z,25.30
2018-06-11T10:00:36.882Z,26.20
2018-06-11T10:03:05.492Z,26.30
2018-06-11T10:05:34.350Z,26.20
2018-06-11T10:08:02.848Z,26.00
2018-06-11T10:10:31.354Z,26.00
2018-06-11T10:12:59.868Z,26.60
2018-06-11T10:15:28.376Z,26.20
2018-06-11T10:17:56.860Z,25.50
2018-06-11T10:20:25.388Z,25.30
2018-06-11T10:22:53.834Z,25.90
2018-06-11T10:25:22.358Z,25.10
2018-06-11T10:27:50.852Z,25.30
2018-06-11T10:30:19.415Z,25.20
2018-06-11T10:32:48.007Z,25.20
2018-06-11T10:35:16.447Z,25.40
2018-06-11T10:37:44.954Z,25.90
2018-06-11T10:40:13.406Z,25.50
2018-06-11T10:42:41.966Z,25.10
2018-06-11T10:45:10.433Z,25.00
2018-06-11T10:47:38.877Z,25.90
2018-06-11T10:50:07.463Z,25.60
2018-06-11T10:52:36.269Z,25.90
2018-06-11T10:55:04.912Z,25.40
2018-06-11T10:57:33.410Z,25.60
2018-06-11T11:00:01.899Z,25.70
2018-06-11T11:02:30.344Z,25.70
2018-06-11T11:04:58.898Z,25.50
2018-06-11T11:07:27.343Z,25.50
2018-06-11T11:09:55.878Z,25.00
2018-06-11T11:12:24.444Z,25.30
2018-06-11T11:14:52.940Z,25.40
2018-06-11T11:17:22.201Z,25.30
2018-06-11T11:19:50.702Z,24.90
2018-06-11T11:22:19.177Z,24.90
2018-06-11T11:24:47.665Z,25.30
2018-06-11T11:27:16.141Z,25.50
2018-06-11T11:29:44.615Z,25.10
2018-06-11T11:32:13.084Z,25.30
2018-06-11T11:34:41.522Z,24.90
2018-06-11T11:37:10.132Z,24.90
2018-06-11T11:39:38.627Z,24.90
2018-06-11T11:42:07.175Z,24.80
2018-06-11T11:44:35.758Z,25.30
2018-06-11T11:47:04.645Z,25.20
2018-06-11T11:49:33.094Z,25.20
2018-06-11T11:52:01.633Z,25.40
2018-06-11T11:56:58.226Z,25.50
2018-06-11T11:59:26.760Z,25.50
2018-06-11T12:01:55.236Z,25.50
2018-06-11T12:04:23.707Z,25.50
2018-06-11T12:06:52.181Z,25.90
2018-06-11T12:11:48.810Z,25.60
2018-06-11T12:14:17.673Z,25.40
2018-06-11T12:16:46.148Z,25.60
2018-06-11T12:19:15.626Z,25.60
2018-06-11T12:21:44.105Z,25.30
2018-06-11T12:24:12.576Z,25.90
2018-06-11T12:26:41.045Z,25.90
2018-06-11T12:29:10.190Z,26.00
2018-06-11T12:31:38.994Z,26.20
2018-06-11T12:34:08.000Z,26.20
2018-06-11T12:36:37.140Z,26.00
2018-06-11T12:39:08.715Z,25.40
2018-06-11T12:41:38.324Z,25.00
2018-06-11T12:44:06.757Z,25.30
2018-06-11T12:46:35.291Z,25.40
2018-06-11T12:49:03.773Z,25.30
2018-06-11T12:51:32.356Z,25.30
2018-06-11T12:54:00.861Z,25.10
2018-06-11T12:56:29.568Z,24.90
2018-06-11T12:58:58.124Z,25.10
2018-06-11T13:01:26.538Z,25.30
2018-06-11T13:03:54.979Z,25.40
2018-06-11T13:06:23.525Z,25.50
2018-06-11T13:08:52.022Z,25.60
2018-06-11T13:11:20.536Z,25.50
2018-06-11T13:13:49.035Z,25.20
2018-06-11T13:16:17.614Z,25.20
2018-06-11T13:18:46.992Z,25.40
2018-06-11T13:21:15.803Z,25.40
2018-06-11T13:23:44.250Z,25.50
2018-06-11T13:26:12.875Z,25.40
2018-06-11T13:28:41.490Z,25.50
2018-06-11T13:31:09.956Z,25.60
2018-06-11T13:33:38.972Z,25.40
2018-06-11T13:36:07.454Z,25.20
2018-06-11T13:38:35.924Z,24.90
2018-06-11T13:41:04.379Z,24.70
2018-06-11T13:43:32.875Z,24.80
2018-06-11T13:46:01.671Z,24.60
2018-06-11T13:48:30.232Z,24.70
2018-06-11T13:50:58.755Z,24.70
2018-06-11T13:53:27.274Z,24.60
2018-06-11T13:55:55.884Z,24.80
2018-06-11T13:58:24.384Z,24.90
2018-06-11T14:00:52.901Z,24.70
2018-06-11T14:03:21.715Z,24.50
2018-06-11T14:05:50.340Z,24.30
2018-06-11T14:08:18.860Z,24.00
2018-06-11T14:10:47.293Z,23.90
2018-06-11T14:13:15.777Z,24.00
2018-06-11T14:15:44.247Z,23.80
2018-06-11T14:18:12.797Z,23.70
2018-06-11T14:20:41.320Z,23.60
2018-06-11T14:23:09.802Z,23.60
2018-06-11T14:25:38.324Z,23.70
2018-06-11T14:28:06.866Z,23.70
2018-06-11T14:30:35.328Z,23.70
2018-06-11T14:33:03.910Z,23.60
2018-06-11T14:35:32.385Z,23.70
2018-06-11T14:38:00.845Z,23.60
2018-06-11T14:40:29.459Z,23.50
2018-06-11T14:42:57.979Z,23.50
2018-06-11T14:45:26.476Z,23.50
2018-06-11T14:47:54.954Z,23.40
2018-06-11T14:50:23.542Z,23.30
2018-06-11T14:52:52.093Z,23.30
2018-06-11T14:55:20.621Z,23.20
2018-06-11T14:57:49.045Z,23.20
2018-06-11T15:00:17.540Z,23.30
2018-06-11T15:02:46.064Z,23.30
2018-06-11T15:05:14.561Z,23.20
2018-06-11T15:07:43.011Z,23.20
2018-06-11T15:10:11.443Z,23.00
2018-06-11T15:12:39.879Z,22.90
2018-06-11T15:15:08.460Z,22.90
2018-06-11T15:17:37.206Z,22.90
2018-06-11T15:20:05.724Z,22.90
2018-06-11T15:25:02.620Z,23.00
2018-06-11T15:27:31.231Z,23.00
2018-06-11T15:29:59.820Z,23.10
2018-06-11T15:32:28.387Z,23.10
2018-06-11T15:34:56.832Z,23.20
2018-06-11T15:37:25.315Z,23.20
2018-06-11T15:39:53.781Z,23.20
2018-06-11T15:42:22.275Z,23.10
2018-06-11T15:44:50.741Z,23.10
2018-06-11T15:47:19.207Z,23.00
2018-06-11T15:49:47.746Z,22.90
2018-06-11T15:52:16.196Z,22.90
2018-06-11T15:54:44.677Z,22.80
2018-06-11T15:57:13.195Z,22.80
2018-06-11T15:59:41.753Z,22.70
2018-06-11T16:02:10.341Z,22.80
2018-06-11T16:04:38.902Z,22.80
2018-06-11T16:07:07.509Z,22.80
2018-06-11T16:09:35.956Z,22.90
2018-06-11T16:12:04.509Z,23.00
2018-06-11T16:14:32.969Z,23.00
2018-06-11T16:17:01.569Z,22.90
2018-06-11T16:19:30.030Z,23.00
2018-06-11T16:21:58.510Z,23.00
2018-06-11T16:24:27.060Z,22.90
2018-06-11T16:26:55.576Z,22.80
2018-06-11T16:29:25.632Z,23.00
2018-06-11T16:31:54.073Z,23.00
2018-06-11T16:34:22.657Z,23.10
2018-06-11T16:36:51.117Z,23.10
2018-06-11T16:39:19.601Z,22.90
2018-06-11T16:41:48.170Z,22.90
2018-06-11T16:44:16.720Z,23.00
2018-06-11T16:49:13.431Z,23.10
2018-06-11T16:51:42.044Z,23.00
2018-06-11T16:54:10.733Z,22.90
2018-06-11T16:56:39.307Z,22.80
2018-06-11T16:59:09.490Z,22.90
2018-06-11T17:01:37.981Z,22.80
2018-06-11T17:04:06.723Z,22.60
2018-06-11T17:06:35.262Z,22.70
2018-06-11T17:09:04.650Z,22.70
2018-06-11T17:11:34.458Z,22.60
2018-06-11T17:14:03.067Z,22.50
2018-06-11T17:16:31.744Z,22.50
2018-06-11T17:19:00.619Z,22.40
2018-06-11T17:21:29.103Z,22.40
2018-06-11T17:23:57.594Z,22.30
2018-06-11T17:26:26.037Z,22.30
2018-06-11T17:28:54.516Z,22.30
2018-06-11T17:31:23.037Z,22.20
2018-06-11T17:33:51.685Z,22.20
2018-06-11T17:36:20.212Z,22.20
2018-06-11T17:38:48.682Z,22.10
2018-06-11T17:41:17.220Z,22.10
2018-06-11T17:43:45.712Z,22.10
2018-06-11T17:46:14.177Z,22.00
2018-06-11T17:48:42.622Z,22.00
2018-06-11T17:51:11.194Z,22.10
2018-06-11T17:53:46.254Z,22.00
2018-06-11T17:56:14.717Z,21.90
2018-06-11T17:58:43.241Z,21.80
2018-06-11T18:01:11.780Z,21.70
2018-06-11T18:03:40.278Z,21.60
2018-06-11T18:06:08.843Z,21.60
2018-06-11T18:08:37.675Z,21.50
2018-06-11T18:11:06.314Z,21.50
2018-06-11T18:13:34.862Z,21.30
2018-06-11T18:16:03.512Z,21.20
2018-06-11T18:18:32.010Z,21.00
2018-06-11T18:21:00.514Z,20.80
2018-06-11T18:23:28.977Z,20.50
2018-06-11T18:25:57.677Z,20.40
2018-06-11T18:28:26.562Z,20.30
2018-06-11T18:30:55.050Z,20.10
2018-06-11T18:33:23.697Z,20.00
2018-06-11T18:35:52.303Z,19.90
2018-06-11T18:38:20.797Z,19.80
2018-06-11T18:40:49.454Z,19.70
2018-06-11T18:43:18.027Z,19.60
2018-06-11T18:45:46.582Z,19.50
2018-06-11T18:48:15.288Z,19.40
2018-06-11T18:50:45.965Z,19.30
2018-06-11T18:53:14.418Z,19.30
2018-06-11T18:55:42.870Z,19.30
2018-06-11T18:58:11.357Z,19.20
2018-06-11T19:00:39.895Z,19.10
2018-06-11T19:03:08.496Z,19.20
2018-06-11T19:05:36.976Z,19.10
2018-06-11T19:08:05.745Z,19.00
2018-06-11T19:10:34.291Z,19.00
2018-06-11T19:13:03.293Z,18.90
2018-06-11T19:15:31.848Z,19.00
2018-06-11T19:18:00.337Z,19.00
2018-06-11T19:20:29.151Z,19.00
2018-06-11T19:22:57.782Z,18.90
2018-06-11T19:25:26.396Z,18.80
2018-06-11T19:27:55.019Z,18.90
2018-06-11T19:30:23.551Z,18.90
2018-06-11T19:32:53.054Z,18.80
2018-06-11T19:35:21.623Z,18.70
2018-06-11T19:37:50.290Z,18.60
2018-06-11T19:40:18.951Z,18.60
2018-06-11T19:42:47.520Z,18.70
2018-06-11T19:45:15.985Z,18.80
2018-06-11T19:47:44.628Z,18.90
2018-06-11T19:50:13.258Z,18.90
2018-06-11T19:52:42.530Z,18.90
2018-06-11T19:55:11.021Z,18.90
2018-06-11T19:57:39.568Z,18.90
2018-06-11T20:00:08.137Z,18.90
2018-06-11T20:02:36.645Z,18.80
2018-06-11T20:05:05.150Z,18.80
2018-06-11T20:07:33.690Z,18.80
2018-06-11T20:10:02.822Z,18.90
2018-06-11T20:12:31.758Z,18.80
2018-06-11T20:15:00.329Z,18.70
2018-06-11T20:17:28.769Z,18.60
2018-06-11T20:19:58.363Z,18.60
2018-06-11T20:22:26.933Z,18.60
2018-06-11T20:24:55.493Z,18.60
2018-06-11T20:27:24.144Z,18.60
2018-06-11T20:29:52.646Z,18.50
2018-06-11T20:32:22.295Z,18.70
2018-06-11T20:34:50.732Z,18.70
2018-06-11T20:37:19.279Z,18.70
2018-06-11T20:39:47.733Z,18.80
2018-06-11T20:42:16.386Z,18.70
2018-06-11T20:44:45.212Z,18.70
2018-06-11T20:47:13.692Z,18.80
2018-06-11T20:49:42.282Z,18.60
2018-06-11T20:52:10.730Z,18.60
2018-06-11T20:54:39.446Z,18.60
2018-06-11T20:57:08.011Z,18.60
2018-06-11T20:59:36.582Z,18.50
2018-06-11T21:02:05.076Z,18.60
2018-06-11T21:04:33.967Z,18.50
2018-06-11T21:07:02.571Z,18.50
2018-06-11T21:09:31.048Z,18.40
2018-06-11T21:11:59.528Z,18.30
2018-06-11T21:14:28.315Z,18.20
2018-06-11T21:16:57.488Z,18.10
2018-06-11T21:19:26.818Z,18.10
2018-06-11T21:21:55.315Z,18.00
2018-06-11T21:24:24.027Z,18.00
2018-06-11T21:26:52.574Z,18.00
2018-06-11T21:29:21.008Z,18.00
2018-06-11T21:31:52.835Z,18.00
2018-06-11T21:34:21.317Z,18.00
2018-06-11T21:36:50.143Z,18.00
2018-06-11T21:39:18.638Z,17.90
2018-06-11T21:41:47.171Z,17.90
2018-06-11T21:44:15.645Z,18.00
2018-06-11T21:46:44.167Z,18.00
2018-06-11T21:49:12.977Z,18.00
2018-06-11T21:51:41.707Z,18.00
2018-06-11T21:54:10.289Z,17.90
2018-06-11T21:56:38.766Z,17.90
2018-06-11T21:59:07.303Z,17.90
2018-06-11T22:01:36.584Z,17.90
2018-06-11T22:04:05.497Z,17.80
2018-06-11T22:06:33.896Z,17.80
2018-06-11T22:09:02.390Z,17.80
2018-06-11T22:11:30.868Z,17.80
2018-06-11T22:13:59.315Z,17.70
2018-06-11T22:16:27.754Z,17.70
2018-06-11T22:18:56.193Z,17.70
2018-06-11T22:21:24.661Z,17.70
2018-06-11T22:23:53.104Z,17.70
2018-06-11T22:26:21.665Z,17.70
2018-06-11T22:28:50.179Z,17.70
2018-06-11T22:31:18.696Z,17.60
2018-06-11T22:33:47.807Z,17.60
2018-06-11T22:36:16.261Z,17.60
2018-06-11T22:38:44.831Z,17.50
2018-06-11T22:41:13.289Z,17.50
2018-06-11T22:43:42.025Z,17.50
2018-06-11T22:46:10.524Z,17.50
2018-06-11T22:48:39.014Z,17.50
2018-06-11T22:51:07.487Z,17.50
2018-06-11T22:53:35.951Z,17.40
2018-06-11T22:56:04.469Z,17.40
2018-06-11T22:58:32.992Z,17.30
2018-06-11T23:01:01.453Z,17.20
2018-06-11T23:03:29.938Z,17.20
2018-06-11T23:05:58.596Z,17.20
2018-06-11T23:08:27.048Z,17.20
2018-06-11T23:10:55.499Z,17.10
2018-06-11T23:13:24.009Z,17.10
2018-06-11T23:15:52.877Z,17.10
2018-06-11T23:18:21.478Z,17.10
2018-06-11T23:20:49.968Z,17.10
2018-06-11T23:23:18.410Z,17.20
2018-06-11T23:25:46.910Z,17.20
2018-06-11T23:28:15.668Z,17.20
2018-06-11T23:30:44.176Z,17.10
2018-06-11T23:33:12.783Z,17.10
2018-06-11T23:35:41.384Z,17.10
2018-06-11T23:38:09.962Z,17.10
2018-06-11T23:40:38.855Z,17.10
2018-06-11T23:43:07.316Z,17.10
2018-06-11T23:45:36.075Z,17.10
2018-06-11T23:48:04.649Z,17.10
2018-06-11T23:50:33.194Z,17.10
2018-06-11T23:53:01.798Z,17.00
2018-06-11T23:55:30.482Z,16.90
2018-06-11T23:57:59.044Z,17.00
